Fermanagh, Pennsylvania
Current Conditions -  °F | °C
As of 10:53 PM on Saturday 24 Jan 2015 (Local Time) from KSEG Reporting Station
Overcast Overcast  
Wind Chill: 28°   Ceiling: 2800
Heat Index: 35°   Visibility: 10mi
Dew Point: 25°   Wind: 9mph
Humidity: 67%   Direction: 290°WNW
Pressure: 29.59"   Gusts: NA
Location:  40.5853°N, 77.3611°W
Report Text: KSEG 250353Z AUTO 29008KT 10SM OVC028 02/M04 A2959 RMK AO2 SLP023 T00171039
Loading
Personal Weather Stations






























Interactive Weather Map New forecast layout! Learn more

10-Day Weather Forecast

Advertisements
Track Severe Weather on mobile